Terminal Aerodrome Forecast
Issued by NWS Mt. Holly, NJ

Home | Current Version | Previous Version | Text Only | Print | Product List | Glossary On
Versions: 1 2 3 4 5 6 7 8 9 10 11 12 13 14 15 16 17 18 19 20 21 22 23 24 25 26 27 28 29 30 31 32 33 34 35 36 37 38 39 40
000
FTUS41 KPHI 161122
TAFRDG
TAF
KRDG 161122Z 1612/1712 VRB02KT P6SM VCSH OVC050
     FM161300 VRB02KT 6SM -SN BR OVC025
      TEMPO 1613/1616 2SM -SN OVC015
     FM161600 VRB02KT 2SM -SN OVC015
     FM161800 VRB02KT 4SM BR OVC008
      TEMPO 1618/1621 2SM -SNRA OVC005
     FM162300 VRB04KT 4SM -SNRA OVC008
     FM170300 VRB04KT 1SM -FZRASN OVC003=

USA.gov is the U.S. government's official web portal to all federal, state and local government web resources and services.